Lesage, West Virginia
Current Conditions -  °F | °C
As of 1:51 AM on Sunday 23 Nov 2014 (Local Time) from KHTS Reporting Station
Broken Clouds Broken Clouds  
Wind Chill: 44°   Ceiling: 12000
Heat Index: 44°   Visibility: 10mi
Dew Point: 25°   Wind: 0mph
Humidity: 47%   Direction: NA
Pressure: 30.11"   Gusts: NA
Location:  38.51°N, 82.3°W
Report Text: KHTS 230651Z 00000KT 10SM FEW090 BKN120 07/M04 A3011 RMK AO2 SLP194 T00671039
Loading
Personal Weather Stations






























Interactive Weather Map New forecast layout! Learn more

10-Day Weather Forecast

Advertisements
Track Severe Weather on mobile